sensor_id;sensor_type;location;lat;lon;timestamp;temperature;humidity
2647;DHT22;1333;50.958;6.770;2023-05-10T00:01:40;14.00;99.90
2647;DHT22;1333;50.958;6.770;2023-05-10T00:04:05;13.90;99.90
2647;DHT22;1333;50.958;6.770;2023-05-10T00:06:31;14.00;99.90
2647;DHT22;1333;50.958;6.770;2023-05-10T00:08:57;14.00;99.90
2647;DHT22;1333;50.958;6.770;2023-05-10T00:11:23;14.00;99.90
2647;DHT22;1333;50.958;6.770;2023-05-10T00:13:48;14.10;99.90
2647;DHT22;1333;50.958;6.770;2023-05-10T00:16:14;14.10;99.90
2647;DHT22;1333;50.958;6.770;2023-05-10T00:18:39;14.10;99.90
2647;DHT22;1333;50.958;6.770;2023-05-10T00:21:05;14.10;99.90
2647;DHT22;1333;50.958;6.770;2023-05-10T00:23:31;14.10;99.90
2647;DHT22;1333;50.958;6.770;2023-05-10T00:25:57;14.10;99.90
2647;DHT22;1333;50.958;6.770;2023-05-10T00:28:22;14.20;99.90
2647;DHT22;1333;50.958;6.770;2023-05-10T00:30:48;14.20;99.90
2647;DHT22;1333;50.958;6.770;2023-05-10T00:33:14;14.30;99.90
2647;DHT22;1333;50.958;6.770;2023-05-10T00:35:39;14.20;99.90
2647;DHT22;1333;50.958;6.770;2023-05-10T00:38:06;14.30;99.90
2647;DHT22;1333;50.958;6.770;2023-05-10T00:40:32;14.30;99.90
2647;DHT22;1333;50.958;6.770;2023-05-10T00:42:57;14.40;99.90
2647;DHT22;1333;50.958;6.770;2023-05-10T00:45:24;14.40;99.90
2647;DHT22;1333;50.958;6.770;2023-05-10T00:47:51;14.50;99.90
2647;DHT22;1333;50.958;6.770;2023-05-10T00:50:20;14.60;99.90
2647;DHT22;1333;50.958;6.770;2023-05-10T00:52:46;14.60;99.90
2647;DHT22;1333;50.958;6.770;2023-05-10T00:55:11;14.60;99.90
2647;DHT22;1333;50.958;6.770;2023-05-10T00:57:38;14.70;99.90
2647;DHT22;1333;50.958;6.770;2023-05-10T01:00:04;14.70;99.90
2647;DHT22;1333;50.958;6.770;2023-05-10T01:02:29;14.70;99.90
2647;DHT22;1333;50.958;6.770;2023-05-10T01:04:55;14.70;99.90
2647;DHT22;1333;50.958;6.770;2023-05-10T01:07:21;14.60;99.90
2647;DHT22;1333;50.958;6.770;2023-05-10T01:09:46;14.60;99.90
2647;DHT22;1333;50.958;6.770;2023-05-10T01:12:12;14.60;99.90
2647;DHT22;1333;50.958;6.770;2023-05-10T01:14:38;14.50;99.90
2647;DHT22;1333;50.958;6.770;2023-05-10T01:17:05;14.50;99.90
2647;DHT22;1333;50.958;6.770;2023-05-10T01:19:31;14.40;99.90
2647;DHT22;1333;50.958;6.770;2023-05-10T01:28:04;14.40;99.90
2647;DHT22;1333;50.958;6.770;2023-05-10T01:36:40;14.40;99.90
2647;DHT22;1333;50.958;6.770;2023-05-10T01:39:11;14.40;99.90
2647;DHT22;1333;50.958;6.770;2023-05-10T01:44:42;14.40;99.90
2647;DHT22;1333;50.958;6.770;2023-05-10T01:47:31;14.30;99.90
2647;DHT22;1333;50.958;6.770;2023-05-10T01:50:02;14.40;99.90
2647;DHT22;1333;50.958;6.770;2023-05-10T01:52:33;14.50;99.90
2647;DHT22;1333;50.958;6.770;2023-05-10T01:55:04;14.50;99.90
2647;DHT22;1333;50.958;6.770;2023-05-10T01:57:34;14.50;99.90
2647;DHT22;1333;50.958;6.770;2023-05-10T02:00:02;14.50;99.90
2647;DHT22;1333;50.958;6.770;2023-05-10T02:02:31;14.50;99.90
2647;DHT22;1333;50.958;6.770;2023-05-10T02:04:59;14.60;99.90
2647;DHT22;1333;50.958;6.770;2023-05-10T02:07:26;14.60;99.90
2647;DHT22;1333;50.958;6.770;2023-05-10T02:09:53;14.60;99.90
2647;DHT22;1333;50.958;6.770;2023-05-10T02:12:21;14.60;99.90
2647;DHT22;1333;50.958;6.770;2023-05-10T02:14:47;14.70;99.90
2647;DHT22;1333;50.958;6.770;2023-05-10T02:17:13;14.70;99.90
2647;DHT22;1333;50.958;6.770;2023-05-10T02:19:41;14.70;99.90
2647;DHT22;1333;50.958;6.770;2023-05-10T02:22:08;14.70;99.90
2647;DHT22;1333;50.958;6.770;2023-05-10T02:24:34;14.80;99.90
2647;DHT22;1333;50.958;6.770;2023-05-10T02:27:02;14.80;99.90
2647;DHT22;1333;50.958;6.770;2023-05-10T02:29:29;14.80;99.90
2647;DHT22;1333;50.958;6.770;2023-05-10T02:31:57;14.80;99.90
2647;DHT22;1333;50.958;6.770;2023-05-10T02:34:25;14.90;99.90
2647;DHT22;1333;50.958;6.770;2023-05-10T02:36:52;14.90;99.90
2647;DHT22;1333;50.958;6.770;2023-05-10T02:39:19;14.90;99.90
2647;DHT22;1333;50.958;6.770;2023-05-10T02:41:46;14.90;99.90
2647;DHT22;1333;50.958;6.770;2023-05-10T02:44:15;14.90;99.90
2647;DHT22;1333;50.958;6.770;2023-05-10T02:46:41;14.80;99.90
2647;DHT22;1333;50.958;6.770;2023-05-10T02:49:06;14.90;99.90
2647;DHT22;1333;50.958;6.770;2023-05-10T02:51:35;14.80;99.90
2647;DHT22;1333;50.958;6.770;2023-05-10T02:54:09;14.90;99.90
2647;DHT22;1333;50.958;6.770;2023-05-10T02:56:36;14.80;99.90
2647;DHT22;1333;50.958;6.770;2023-05-10T02:59:04;14.90;99.90
2647;DHT22;1333;50.958;6.770;2023-05-10T03:01:30;14.80;99.90
2647;DHT22;1333;50.958;6.770;2023-05-10T03:03:55;14.80;99.90
2647;DHT22;1333;50.958;6.770;2023-05-10T03:06:21;14.80;99.90
2647;DHT22;1333;50.958;6.770;2023-05-10T03:08:47;14.70;99.90
2647;DHT22;1333;50.958;6.770;2023-05-10T03:14:10;14.70;99.90
2647;DHT22;1333;50.958;6.770;2023-05-10T03:16:55;14.70;99.90
2647;DHT22;1333;50.958;6.770;2023-05-10T03:19:35;14.70;99.90
2647;DHT22;1333;50.958;6.770;2023-05-10T03:22:08;14.70;99.90
2647;DHT22;1333;50.958;6.770;2023-05-10T03:24:35;14.70;99.90
2647;DHT22;1333;50.958;6.770;2023-05-10T03:27:02;14.70;99.90
2647;DHT22;1333;50.958;6.770;2023-05-10T03:29:30;14.80;99.90
2647;DHT22;1333;50.958;6.770;2023-05-10T03:31:58;14.80;99.90
2647;DHT22;1333;50.958;6.770;2023-05-10T03:34:24;14.80;99.90
2647;DHT22;1333;50.958;6.770;2023-05-10T03:36:50;14.80;99.90
2647;DHT22;1333;50.958;6.770;2023-05-10T03:39:16;14.80;99.90
2647;DHT22;1333;50.958;6.770;2023-05-10T03:41:41;14.80;99.90
2647;DHT22;1333;50.958;6.770;2023-05-10T03:44:07;14.80;99.90
2647;DHT22;1333;50.958;6.770;2023-05-10T03:46:32;14.80;99.90
2647;DHT22;1333;50.958;6.770;2023-05-10T03:48:58;14.80;99.90
2647;DHT22;1333;50.958;6.770;2023-05-10T03:51:24;14.80;99.90
2647;DHT22;1333;50.958;6.770;2023-05-10T03:53:53;14.70;99.90
2647;DHT22;1333;50.958;6.770;2023-05-10T03:56:19;14.60;99.90
2647;DHT22;1333;50.958;6.770;2023-05-10T03:58:46;14.60;99.90
2647;DHT22;1333;50.958;6.770;2023-05-10T04:01:11;14.50;99.90
2647;DHT22;1333;50.958;6.770;2023-05-10T04:03:37;14.40;99.90
2647;DHT22;1333;50.958;6.770;2023-05-10T04:06:03;14.30;99.90
2647;DHT22;1333;50.958;6.770;2023-05-10T04:08:29;14.30;99.90
2647;DHT22;1333;50.958;6.770;2023-05-10T04:10:55;14.30;99.90
2647;DHT22;1333;50.958;6.770;2023-05-10T04:13:29;14.20;99.90
2647;DHT22;1333;50.958;6.770;2023-05-10T04:15:54;14.20;99.90
2647;DHT22;1333;50.958;6.770;2023-05-10T04:18:21;14.20;99.90
2647;DHT22;1333;50.958;6.770;2023-05-10T04:20:47;14.20;99.90
2647;DHT22;1333;50.958;6.770;2023-05-10T04:23:12;14.20;99.90
2647;DHT22;1333;50.958;6.770;2023-05-10T04:25:39;14.20;99.90
2647;DHT22;1333;50.958;6.770;2023-05-10T04:28:05;14.20;99.90
2647;DHT22;1333;50.958;6.770;2023-05-10T04:30:30;14.20;99.90
2647;DHT22;1333;50.958;6.770;2023-05-10T04:32:56;14.20;99.90
2647;DHT22;1333;50.958;6.770;2023-05-10T04:35:21;14.20;99.90
2647;DHT22;1333;50.958;6.770;2023-05-10T04:37:47;14.20;99.90
2647;DHT22;1333;50.958;6.770;2023-05-10T04:40:12;14.20;99.90
2647;DHT22;1333;50.958;6.770;2023-05-10T04:42:40;14.30;99.90
2647;DHT22;1333;50.958;6.770;2023-05-10T04:45:06;14.30;99.90
2647;DHT22;1333;50.958;6.770;2023-05-10T04:47:32;14.30;99.90
2647;DHT22;1333;50.958;6.770;2023-05-10T04:49:58;14.30;99.90
2647;DHT22;1333;50.958;6.770;2023-05-10T04:52:24;14.40;99.90
2647;DHT22;1333;50.958;6.770;2023-05-10T04:54:49;14.50;99.90
2647;DHT22;1333;50.958;6.770;2023-05-10T04:57:16;14.60;99.90
2647;DHT22;1333;50.958;6.770;2023-05-10T04:59:41;14.60;99.90
2647;DHT22;1333;50.958;6.770;2023-05-10T05:02:07;14.70;99.90
2647;DHT22;1333;50.958;6.770;2023-05-10T05:04:33;14.70;99.90
2647;DHT22;1333;50.958;6.770;2023-05-10T05:06:59;14.70;99.90
2647;DHT22;1333;50.958;6.770;2023-05-10T05:09:24;14.70;99.90
2647;DHT22;1333;50.958;6.770;2023-05-10T05:11:50;14.80;99.90
2647;DHT22;1333;50.958;6.770;2023-05-10T05:14:15;14.80;99.90
2647;DHT22;1333;50.958;6.770;2023-05-10T05:16:41;14.80;99.90
2647;DHT22;1333;50.958;6.770;2023-05-10T05:19:06;14.90;99.90
2647;DHT22;1333;50.958;6.770;2023-05-10T05:21:32;14.90;99.90
2647;DHT22;1333;50.958;6.770;2023-05-10T05:23:58;14.80;99.90
2647;DHT22;1333;50.958;6.770;2023-05-10T05:26:23;14.80;99.90
2647;DHT22;1333;50.958;6.770;2023-05-10T05:28:49;14.80;99.90
2647;DHT22;1333;50.958;6.770;2023-05-10T05:31:17;14.90;99.90
2647;DHT22;1333;50.958;6.770;2023-05-10T05:33:43;14.90;99.90
2647;DHT22;1333;50.958;6.770;2023-05-10T05:36:09;14.80;99.90
2647;DHT22;1333;50.958;6.770;2023-05-10T05:38:34;14.80;99.90
2647;DHT22;1333;50.958;6.770;2023-05-10T05:41:00;14.90;99.90
2647;DHT22;1333;50.958;6.770;2023-05-10T05:43:25;15.00;99.90
2647;DHT22;1333;50.958;6.770;2023-05-10T05:45:54;15.00;99.90
2647;DHT22;1333;50.958;6.770;2023-05-10T05:48:20;15.10;99.90
2647;DHT22;1333;50.958;6.770;2023-05-10T05:50:46;15.00;99.90
2647;DHT22;1333;50.958;6.770;2023-05-10T05:53:11;15.10;99.90
2647;DHT22;1333;50.958;6.770;2023-05-10T05:55:37;15.20;99.90
2647;DHT22;1333;50.958;6.770;2023-05-10T05:58:02;15.40;99.90
2647;DHT22;1333;50.958;6.770;2023-05-10T06:00:28;15.50;99.90
2647;DHT22;1333;50.958;6.770;2023-05-10T06:02:54;15.70;99.90
2647;DHT22;1333;50.958;6.770;2023-05-10T06:05:19;15.70;99.90
2647;DHT22;1333;50.958;6.770;2023-05-10T06:07:46;15.70;99.90
2647;DHT22;1333;50.958;6.770;2023-05-10T06:10:11;15.80;99.90
2647;DHT22;1333;50.958;6.770;2023-05-10T06:12:37;15.90;99.90
2647;DHT22;1333;50.958;6.770;2023-05-10T06:15:03;15.80;99.90
2647;DHT22;1333;50.958;6.770;2023-05-10T06:17:29;15.60;99.90
2647;DHT22;1333;50.958;6.770;2023-05-10T06:19:55;15.60;99.90
2647;DHT22;1333;50.958;6.770;2023-05-10T06:22:20;15.60;99.90
2647;DHT22;1333;50.958;6.770;2023-05-10T06:24:48;15.60;99.90
2647;DHT22;1333;50.958;6.770;2023-05-10T06:27:13;15.70;99.90
2647;DHT22;1333;50.958;6.770;2023-05-10T06:29:39;15.60;99.90
2647;DHT22;1333;50.958;6.770;2023-05-10T06:32:04;15.60;99.90
2647;DHT22;1333;50.958;6.770;2023-05-10T06:34:30;15.70;99.90
2647;DHT22;1333;50.958;6.770;2023-05-10T06:36:55;15.70;99.90
2647;DHT22;1333;50.958;6.770;2023-05-10T06:39:21;15.70;99.90
2647;DHT22;1333;50.958;6.770;2023-05-10T06:41:46;15.60;99.90
2647;DHT22;1333;50.958;6.770;2023-05-10T06:44:12;15.50;99.90
2647;DHT22;1333;50.958;6.770;2023-05-10T06:46:38;15.40;99.90
2647;DHT22;1333;50.958;6.770;2023-05-10T06:49:03;15.30;99.90
2647;DHT22;1333;50.958;6.770;2023-05-10T06:51:29;15.20;99.90
2647;DHT22;1333;50.958;6.770;2023-05-10T06:53:55;15.30;99.90
2647;DHT22;1333;50.958;6.770;2023-05-10T06:56:20;15.30;99.90
2647;DHT22;1333;50.958;6.770;2023-05-10T06:58:47;15.30;99.90
2647;DHT22;1333;50.958;6.770;2023-05-10T07:01:13;15.30;99.90
2647;DHT22;1333;50.958;6.770;2023-05-10T07:03:38;15.40;99.90
2647;DHT22;1333;50.958;6.770;2023-05-10T07:06:04;15.40;99.90
2647;DHT22;1333;50.958;6.770;2023-05-10T07:08:33;15.50;99.90
2647;DHT22;1333;50.958;6.770;2023-05-10T07:11:03;15.60;99.90
2647;DHT22;1333;50.958;6.770;2023-05-10T07:13:33;15.60;99.90
2647;DHT22;1333;50.958;6.770;2023-05-10T07:15:59;15.70;99.90
2647;DHT22;1333;50.958;6.770;2023-05-10T07:18:25;15.70;99.90
2647;DHT22;1333;50.958;6.770;2023-05-10T07:20:51;15.70;99.90
2647;DHT22;1333;50.958;6.770;2023-05-10T07:23:17;15.70;99.90
2647;DHT22;1333;50.958;6.770;2023-05-10T07:25:49;15.70;99.90
2647;DHT22;1333;50.958;6.770;2023-05-10T07:28:17;15.80;99.90
2647;DHT22;1333;50.958;6.770;2023-05-10T07:30:43;15.90;99.90
2647;DHT22;1333;50.958;6.770;2023-05-10T07:33:10;15.90;99.90
2647;DHT22;1333;50.958;6.770;2023-05-10T07:35:36;15.90;99.90
2647;DHT22;1333;50.958;6.770;2023-05-10T07:38:02;16.00;99.90
2647;DHT22;1333;50.958;6.770;2023-05-10T07:40:28;16.00;99.90
2647;DHT22;1333;50.958;6.770;2023-05-10T07:42:54;16.10;99.90
2647;DHT22;1333;50.958;6.770;2023-05-10T07:45:19;16.20;99.90
2647;DHT22;1333;50.958;6.770;2023-05-10T07:47:45;16.30;99.90
2647;DHT22;1333;50.958;6.770;2023-05-10T07:50:11;16.40;99.90
2647;DHT22;1333;50.958;6.770;2023-05-10T07:52:36;16.50;99.90
2647;DHT22;1333;50.958;6.770;2023-05-10T07:55:02;16.70;99.90
2647;DHT22;1333;50.958;6.770;2023-05-10T07:57:27;16.80;99.90
2647;DHT22;1333;50.958;6.770;2023-05-10T07:59:53;16.90;99.90
2647;DHT22;1333;50.958;6.770;2023-05-10T08:02:18;17.00;99.90
2647;DHT22;1333;50.958;6.770;2023-05-10T08:04:44;17.00;99.90
2647;DHT22;1333;50.958;6.770;2023-05-10T08:07:09;17.10;99.90
2647;DHT22;1333;50.958;6.770;2023-05-10T08:09:36;17.20;99.90
2647;DHT22;1333;50.958;6.770;2023-05-10T08:12:01;17.40;99.90
2647;DHT22;1333;50.958;6.770;2023-05-10T08:14:28;17.60;99.90
2647;DHT22;1333;50.958;6.770;2023-05-10T08:16:54;17.70;99.90
2647;DHT22;1333;50.958;6.770;2023-05-10T08:19:20;18.00;99.90
2647;DHT22;1333;50.958;6.770;2023-05-10T08:21:47;18.20;99.90
2647;DHT22;1333;50.958;6.770;2023-05-10T08:24:13;18.30;99.90
2647;DHT22;1333;50.958;6.770;2023-05-10T08:26:38;18.40;99.90
2647;DHT22;1333;50.958;6.770;2023-05-10T08:29:04;18.50;99.90
2647;DHT22;1333;50.958;6.770;2023-05-10T08:31:29;18.50;99.90
2647;DHT22;1333;50.958;6.770;2023-05-10T08:33:55;18.60;99.90
2647;DHT22;1333;50.958;6.770;2023-05-10T08:36:20;18.70;99.90
2647;DHT22;1333;50.958;6.770;2023-05-10T08:38:52;18.80;99.90
2647;DHT22;1333;50.958;6.770;2023-05-10T08:41:20;19.10;99.90
2647;DHT22;1333;50.958;6.770;2023-05-10T08:43:46;19.30;99.90
2647;DHT22;1333;50.958;6.770;2023-05-10T08:46:16;19.60;99.90
2647;DHT22;1333;50.958;6.770;2023-05-10T08:48:47;19.80;99.90
2647;DHT22;1333;50.958;6.770;2023-05-10T08:51:14;20.10;99.90
2647;DHT22;1333;50.958;6.770;2023-05-10T08:53:40;20.30;99.90
2647;DHT22;1333;50.958;6.770;2023-05-10T08:56:06;20.40;99.90
2647;DHT22;1333;50.958;6.770;2023-05-10T08:58:32;20.50;99.90
2647;DHT22;1333;50.958;6.770;2023-05-10T09:00:59;20.50;99.90
2647;DHT22;1333;50.958;6.770;2023-05-10T09:03:26;20.80;99.90
2647;DHT22;1333;50.958;6.770;2023-05-10T09:05:52;21.40;99.90
2647;DHT22;1333;50.958;6.770;2023-05-10T09:08:17;22.10;99.90
2647;DHT22;1333;50.958;6.770;2023-05-10T09:10:44;22.60;99.90
2647;DHT22;1333;50.958;6.770;2023-05-10T09:13:10;22.50;99.90
2647;DHT22;1333;50.958;6.770;2023-05-10T09:15:37;22.10;99.90
2647;DHT22;1333;50.958;6.770;2023-05-10T09:18:02;21.70;99.90
2647;DHT22;1333;50.958;6.770;2023-05-10T09:20:28;21.30;99.90
2647;DHT22;1333;50.958;6.770;2023-05-10T09:22:54;21.00;99.90
2647;DHT22;1333;50.958;6.770;2023-05-10T09:25:19;20.80;99.90
2647;DHT22;1333;50.958;6.770;2023-05-10T09:27:47;20.70;99.90
2647;DHT22;1333;50.958;6.770;2023-05-10T09:30:26;20.70;99.90
2647;DHT22;1333;50.958;6.770;2023-05-10T09:32:53;20.80;99.90
2647;DHT22;1333;50.958;6.770;2023-05-10T09:35:20;20.90;99.90
2647;DHT22;1333;50.958;6.770;2023-05-10T09:37:49;20.90;99.90
2647;DHT22;1333;50.958;6.770;2023-05-10T09:40:17;20.80;99.90
2647;DHT22;1333;50.958;6.770;2023-05-10T09:42:51;20.80;99.90
2647;DHT22;1333;50.958;6.770;2023-05-10T09:45:17;21.00;99.90
2647;DHT22;1333;50.958;6.770;2023-05-10T09:47:42;21.20;99.90
2647;DHT22;1333;50.958;6.770;2023-05-10T09:50:08;21.60;99.90
2647;DHT22;1333;50.958;6.770;2023-05-10T09:52:50;22.30;99.90
2647;DHT22;1333;50.958;6.770;2023-05-10T09:55:18;23.40;99.90
2647;DHT22;1333;50.958;6.770;2023-05-10T09:57:46;24.40;99.90
2647;DHT22;1333;50.958;6.770;2023-05-10T10:00:18;24.90;99.90
2647;DHT22;1333;50.958;6.770;2023-05-10T10:02:53;25.30;99.90
2647;DHT22;1333;50.958;6.770;2023-05-10T10:05:19;25.90;99.90
2647;DHT22;1333;50.958;6.770;2023-05-10T10:07:45;26.80;99.90
2647;DHT22;1333;50.958;6.770;2023-05-10T10:10:10;27.30;99.90
2647;DHT22;1333;50.958;6.770;2023-05-10T10:12:39;27.60;97.80
2647;DHT22;1333;50.958;6.770;2023-05-10T10:15:05;27.60;95.00
2647;DHT22;1333;50.958;6.770;2023-05-10T10:17:32;27.60;94.50
2647;DHT22;1333;50.958;6.770;2023-05-10T10:19:59;27.70;94.00
2647;DHT22;1333;50.958;6.770;2023-05-10T10:22:25;27.70;92.80
2647;DHT22;1333;50.958;6.770;2023-05-10T10:24:51;27.40;92.10
2647;DHT22;1333;50.958;6.770;2023-05-10T10:35:48;28.50;91.00
2647;DHT22;1333;50.958;6.770;2023-05-10T10:38:14;28.20;85.50
2647;DHT22;1333;50.958;6.770;2023-05-10T10:40:40;27.40;81.60
2647;DHT22;1333;50.958;6.770;2023-05-10T10:43:26;26.00;79.50
2647;DHT22;1333;50.958;6.770;2023-05-10T10:46:16;24.60;85.00
2647;DHT22;1333;50.958;6.770;2023-05-10T10:48:50;23.70;91.40
2647;DHT22;1333;50.958;6.770;2023-05-10T10:51:17;22.80;95.90
2647;DHT22;1333;50.958;6.770;2023-05-10T10:53:43;22.00;99.90
2647;DHT22;1333;50.958;6.770;2023-05-10T10:56:12;21.70;99.90
2647;DHT22;1333;50.958;6.770;2023-05-10T10:58:40;21.80;99.90
2647;DHT22;1333;50.958;6.770;2023-05-10T11:01:14;22.10;99.90
2647;DHT22;1333;50.958;6.770;2023-05-10T11:03:40;22.60;99.90
2647;DHT22;1333;50.958;6.770;2023-05-10T11:06:06;23.00;99.90
2647;DHT22;1333;50.958;6.770;2023-05-10T11:08:41;23.10;99.90
2647;DHT22;1333;50.958;6.770;2023-05-10T11:11:07;23.20;99.90
2647;DHT22;1333;50.958;6.770;2023-05-10T11:18:40;22.60;99.90
2647;DHT22;1333;50.958;6.770;2023-05-10T11:21:08;22.40;99.90
2647;DHT22;1333;50.958;6.770;2023-05-10T11:26:07;22.10;99.90
2647;DHT22;1333;50.958;6.770;2023-05-10T11:28:41;22.20;99.90
2647;DHT22;1333;50.958;6.770;2023-05-10T11:31:07;22.30;99.90
2647;DHT22;1333;50.958;6.770;2023-05-10T11:33:45;22.60;99.90
2647;DHT22;1333;50.958;6.770;2023-05-10T11:36:16;22.90;99.90
2647;DHT22;1333;50.958;6.770;2023-05-10T11:38:42;23.40;99.90
2647;DHT22;1333;50.958;6.770;2023-05-10T11:41:09;24.20;99.90
2647;DHT22;1333;50.958;6.770;2023-05-10T11:43:35;25.80;99.90
2647;DHT22;1333;50.958;6.770;2023-05-10T11:46:04;29.20;99.90
2647;DHT22;1333;50.958;6.770;2023-05-10T11:48:30;31.70;87.90
2647;DHT22;1333;50.958;6.770;2023-05-10T11:50:56;32.80;69.50
2647;DHT22;1333;50.958;6.770;2023-05-10T11:53:25;33.10;61.20
2647;DHT22;1333;50.958;6.770;2023-05-10T11:55:51;32.90;57.40
2647;DHT22;1333;50.958;6.770;2023-05-10T11:58:18;32.30;55.60
2647;DHT22;1333;50.958;6.770;2023-05-10T12:00:43;31.80;56.00
2647;DHT22;1333;50.958;6.770;2023-05-10T12:03:09;31.30;54.30
2647;DHT22;1333;50.958;6.770;2023-05-10T12:05:36;30.50;53.90
2647;DHT22;1333;50.958;6.770;2023-05-10T12:08:15;28.80;53.30
2647;DHT22;1333;50.958;6.770;2023-05-10T12:10:41;28.00;56.40
2647;DHT22;1333;50.958;6.770;2023-05-10T12:13:11;27.30;58.30
2647;DHT22;1333;50.958;6.770;2023-05-10T12:15:38;26.60;59.20
2647;DHT22;1333;50.958;6.770;2023-05-10T12:18:04;26.50;63.60
2647;DHT22;1333;50.958;6.770;2023-05-10T12:20:30;26.60;66.80
2647;DHT22;1333;50.958;6.770;2023-05-10T12:22:58;26.60;67.20
2647;DHT22;1333;50.958;6.770;2023-05-10T12:25:29;26.50;66.20
2647;DHT22;1333;50.958;6.770;2023-05-10T12:27:59;26.40;67.20
2647;DHT22;1333;50.958;6.770;2023-05-10T12:30:30;26.30;67.60
2647;DHT22;1333;50.958;6.770;2023-05-10T12:33:01;26.00;65.10
2647;DHT22;1333;50.958;6.770;2023-05-10T12:35:30;26.10;68.50
2647;DHT22;1333;50.958;6.770;2023-05-10T12:37:55;25.80;66.60
2647;DHT22;1333;50.958;6.770;2023-05-10T12:40:21;25.70;68.10
2647;DHT22;1333;50.958;6.770;2023-05-10T12:42:47;25.70;69.10
2647;DHT22;1333;50.958;6.770;2023-05-10T12:45:12;25.40;69.50
2647;DHT22;1333;50.958;6.770;2023-05-10T12:47:38;25.50;71.40
2647;DHT22;1333;50.958;6.770;2023-05-10T12:50:04;25.80;72.30
2647;DHT22;1333;50.958;6.770;2023-05-10T12:52:31;26.20;71.70
2647;DHT22;1333;50.958;6.770;2023-05-10T12:54:58;27.00;72.30
2647;DHT22;1333;50.958;6.770;2023-05-10T12:57:24;28.40;69.50
2647;DHT22;1333;50.958;6.770;2023-05-10T12:59:50;29.00;63.90
2647;DHT22;1333;50.958;6.770;2023-05-10T13:02:16;29.60;63.00
2647;DHT22;1333;50.958;6.770;2023-05-10T13:04:46;29.90;59.70
2647;DHT22;1333;50.958;6.770;2023-05-10T13:07:12;30.00;58.30
2647;DHT22;1333;50.958;6.770;2023-05-10T13:09:37;30.00;58.50
2647;DHT22;1333;50.958;6.770;2023-05-10T13:12:03;30.00;57.90
2647;DHT22;1333;50.958;6.770;2023-05-10T13:14:29;29.90;57.50
2647;DHT22;1333;50.958;6.770;2023-05-10T13:16:54;30.40;57.50
2647;DHT22;1333;50.958;6.770;2023-05-10T13:19:20;31.10;56.60
2647;DHT22;1333;50.958;6.770;2023-05-10T13:21:46;31.40;55.10
2647;DHT22;1333;50.958;6.770;2023-05-10T13:24:11;31.80;55.10
2647;DHT22;1333;50.958;6.770;2023-05-10T13:26:42;32.20;54.10
2647;DHT22;1333;50.958;6.770;2023-05-10T13:29:08;33.30;50.90
2647;DHT22;1333;50.958;6.770;2023-05-10T13:31:34;33.90;49.60
2647;DHT22;1333;50.958;6.770;2023-05-10T13:34:00;34.10;46.90
2647;DHT22;1333;50.958;6.770;2023-05-10T13:36:25;34.10;46.70
2647;DHT22;1333;50.958;6.770;2023-05-10T13:38:51;32.90;44.80
2647;DHT22;1333;50.958;6.770;2023-05-10T13:41:17;32.50;48.00
2647;DHT22;1333;50.958;6.770;2023-05-10T13:43:42;32.70;49.90
2647;DHT22;1333;50.958;6.770;2023-05-10T13:46:08;32.80;49.40
2647;DHT22;1333;50.958;6.770;2023-05-10T13:48:33;32.90;50.50
2647;DHT22;1333;50.958;6.770;2023-05-10T13:50:59;32.60;48.50
2647;DHT22;1333;50.958;6.770;2023-05-10T13:53:24;32.20;46.80
2647;DHT22;1333;50.958;6.770;2023-05-10T13:55:50;31.00;47.60
2647;DHT22;1333;50.958;6.770;2023-05-10T13:58:16;30.70;49.90
2647;DHT22;1333;50.958;6.770;2023-05-10T14:00:41;30.50;49.70
2647;DHT22;1333;50.958;6.770;2023-05-10T14:03:07;30.20;50.20
2647;DHT22;1333;50.958;6.770;2023-05-10T14:05:39;30.10;51.50
2647;DHT22;1333;50.958;6.770;2023-05-10T14:08:05;30.00;51.90
2647;DHT22;1333;50.958;6.770;2023-05-10T14:10:30;29.80;52.20
2647;DHT22;1333;50.958;6.770;2023-05-10T14:12:56;29.50;52.60
2647;DHT22;1333;50.958;6.770;2023-05-10T14:15:21;29.30;52.80
2647;DHT22;1333;50.958;6.770;2023-05-10T14:17:47;29.10;52.50
2647;DHT22;1333;50.958;6.770;2023-05-10T14:20:13;28.90;53.00
2647;DHT22;1333;50.958;6.770;2023-05-10T14:22:38;28.70;53.30
2647;DHT22;1333;50.958;6.770;2023-05-10T14:25:05;28.50;54.10
2647;DHT22;1333;50.958;6.770;2023-05-10T14:27:31;28.30;55.00
2647;DHT22;1333;50.958;6.770;2023-05-10T14:29:57;28.00;55.10
2647;DHT22;1333;50.958;6.770;2023-05-10T14:32:23;27.70;55.80
2647;DHT22;1333;50.958;6.770;2023-05-10T14:34:48;27.30;56.40
2647;DHT22;1333;50.958;6.770;2023-05-10T14:37:14;26.90;56.40
2647;DHT22;1333;50.958;6.770;2023-05-10T14:39:40;26.60;57.10
2647;DHT22;1333;50.958;6.770;2023-05-10T14:42:07;26.30;57.60
2647;DHT22;1333;50.958;6.770;2023-05-10T14:44:33;26.10;58.30
2647;DHT22;1333;50.958;6.770;2023-05-10T14:46:59;25.60;57.20
2647;DHT22;1333;50.958;6.770;2023-05-10T14:49:25;25.40;58.30
2647;DHT22;1333;50.958;6.770;2023-05-10T14:51:51;25.10;59.00
2647;DHT22;1333;50.958;6.770;2023-05-10T14:54:17;24.20;58.40
2647;DHT22;1333;50.958;6.770;2023-05-10T14:56:42;23.80;59.90
2647;DHT22;1333;50.958;6.770;2023-05-10T14:59:08;23.80;62.90
2647;DHT22;1333;50.958;6.770;2023-05-10T15:01:34;23.70;65.40
2647;DHT22;1333;50.958;6.770;2023-05-10T15:04:05;23.90;68.20
2647;DHT22;1333;50.958;6.770;2023-05-10T15:06:32;24.00;68.30
2647;DHT22;1333;50.958;6.770;2023-05-10T15:08:57;24.10;69.40
2647;DHT22;1333;50.958;6.770;2023-05-10T15:11:23;24.10;68.30
2647;DHT22;1333;50.958;6.770;2023-05-10T15:13:49;24.00;67.00
2647;DHT22;1333;50.958;6.770;2023-05-10T15:16:14;24.00;67.50
2647;DHT22;1333;50.958;6.770;2023-05-10T15:18:40;24.00;68.50
2647;DHT22;1333;50.958;6.770;2023-05-10T15:21:06;24.10;68.70
2647;DHT22;1333;50.958;6.770;2023-05-10T15:23:31;24.10;68.60
2647;DHT22;1333;50.958;6.770;2023-05-10T15:25:57;24.20;68.80
2647;DHT22;1333;50.958;6.770;2023-05-10T15:28:23;24.20;68.90
2647;DHT22;1333;50.958;6.770;2023-05-10T15:30:48;24.20;69.20
2647;DHT22;1333;50.958;6.770;2023-05-10T15:33:14;24.30;69.90
2647;DHT22;1333;50.958;6.770;2023-05-10T15:35:39;24.20;69.90
2647;DHT22;1333;50.958;6.770;2023-05-10T15:38:05;23.80;67.90
2647;DHT22;1333;50.958;6.770;2023-05-10T15:40:31;23.60;70.70
2647;DHT22;1333;50.958;6.770;2023-05-10T15:42:56;23.40;72.40
2647;DHT22;1333;50.958;6.770;2023-05-10T15:45:22;23.20;72.80
2647;DHT22;1333;50.958;6.770;2023-05-10T15:47:48;23.00;73.80
2647;DHT22;1333;50.958;6.770;2023-05-10T15:50:14;22.60;74.50
2647;DHT22;1333;50.958;6.770;2023-05-10T15:52:40;22.40;76.60
2647;DHT22;1333;50.958;6.770;2023-05-10T15:55:07;22.30;79.80
2647;DHT22;1333;50.958;6.770;2023-05-10T15:57:38;22.10;81.60
2647;DHT22;1333;50.958;6.770;2023-05-10T16:00:04;22.10;84.90
2647;DHT22;1333;50.958;6.770;2023-05-10T16:02:30;22.20;90.40
2647;DHT22;1333;50.958;6.770;2023-05-10T16:04:55;22.00;90.40
2647;DHT22;1333;50.958;6.770;2023-05-10T16:07:21;22.00;91.60
2647;DHT22;1333;50.958;6.770;2023-05-10T16:09:46;21.80;92.40
2647;DHT22;1333;50.958;6.770;2023-05-10T16:12:13;21.80;93.30
2647;DHT22;1333;50.958;6.770;2023-05-10T16:14:39;21.70;93.90
2647;DHT22;1333;50.958;6.770;2023-05-10T16:17:05;21.70;94.90
2647;DHT22;1333;50.958;6.770;2023-05-10T16:19:30;21.80;96.50
2647;DHT22;1333;50.958;6.770;2023-05-10T16:21:56;21.80;97.50
2647;DHT22;1333;50.958;6.770;2023-05-10T16:24:21;21.90;99.50
2647;DHT22;1333;50.958;6.770;2023-05-10T16:26:47;22.00;99.70
2647;DHT22;1333;50.958;6.770;2023-05-10T16:29:13;21.90;99.30
2647;DHT22;1333;50.958;6.770;2023-05-10T16:31:38;21.80;99.90
2647;DHT22;1333;50.958;6.770;2023-05-10T16:34:04;21.70;99.90